Time;durP1;ratioP1;P1;durP2;ratioP2;P2;SDS_P1;SDS_P2;PMS_P1;PMS_P2;Temp;Humidity;BMP_temperature;BMP_pressure;BME280_temperature;BME280_humidity;BME280_pressure;Samples;Min_cycle;Max_cycle;Signal;HPM_P1;HPM_P2
2024/03/19 00:01:18;;;;;;;9.05;5.38;;;8.80;99.90;;;;;;8380227;28;20055;-76
2024/03/19 00:05:20;;;;;;;12.02;5.25;;;8.90;99.90;;;;;;8383308;28;20388;-75
2024/03/19 00:09:21;;;;;;;9.30;5.30;;;8.90;99.90;;;;;;8393429;28;20043;-76
2024/03/19 00:13:21;;;;;;;9.88;5.35;;;8.90;99.90;;;;;;8374480;28;20063;-76
2024/03/19 00:17:22;;;;;;;11.32;5.60;;;8.90;99.90;;;;;;8380213;28;20048;-76
2024/03/19 00:21:24;;;;;;;10.77;5.57;;;8.90;99.90;;;;;;8364264;28;20075;-75
2024/03/19 00:25:24;;;;;;;12.25;5.75;;;8.90;99.90;;;;;;8390858;28;20059;-76
2024/03/19 00:29:26;;;;;;;10.35;5.93;;;9.00;99.90;;;;;;8392210;28;20048;-76
2024/03/19 00:33:27;;;;;;;12.07;5.95;;;9.10;99.90;;;;;;8387583;28;20446;-76
2024/03/19 00:37:28;;;;;;;12.48;5.75;;;9.10;99.90;;;;;;8399657;28;20576;-76
2024/03/19 00:41:29;;;;;;;12.57;6.22;;;9.20;99.90;;;;;;8376701;28;20044;-76
2024/03/19 00:45:39;;;;;;;11.23;6.50;;;9.20;99.90;;;;;;8360976;28;20060;-76
2024/03/19 00:49:40;;;;;;;10.05;6.25;;;9.20;99.90;;;;;;8367440;28;20050;-76
2024/03/19 00:53:41;;;;;;;12.05;6.32;;;9.30;99.90;;;;;;8376400;28;20078;-76
2024/03/19 00:57:42;;;;;;;12.35;6.63;;;9.30;99.90;;;;;;8389665;28;20057;-76
2024/03/19 01:01:43;;;;;;;10.65;5.57;;;9.30;99.90;;;;;;8381510;28;20064;-76
2024/03/19 01:05:44;;;;;;;10.25;6.43;;;9.30;99.90;;;;;;8388285;28;20116;-76
2024/03/19 01:09:45;;;;;;;13.45;6.20;;;9.40;99.90;;;;;;8363875;28;20334;-76
2024/03/19 01:13:46;;;;;;;10.50;6.20;;;9.40;99.90;;;;;;8377710;28;24575;-76
2024/03/19 01:17:47;;;;;;;9.48;5.60;;;9.50;99.90;;;;;;8383058;28;20595;-76
2024/03/19 01:21:48;;;;;;;10.88;6.15;;;9.60;99.90;;;;;;8389775;28;20463;-76
2024/03/19 01:25:49;;;;;;;13.15;6.30;;;9.60;99.90;;;;;;8361013;28;20048;-76
2024/03/19 01:29:50;;;;;;;10.30;6.47;;;9.60;99.90;;;;;;8379624;28;20044;-76
2024/03/19 01:33:51;;;;;;;11.63;6.03;;;9.70;99.90;;;;;;8407282;28;20052;-76
2024/03/19 01:37:52;;;;;;;11.70;6.10;;;9.80;99.90;;;;;;8381821;28;20048;-76
2024/03/19 01:41:57;;;;;;;11.07;6.25;;;9.80;99.90;;;;;;8379315;28;20049;-76
2024/03/19 01:46:07;;;;;;;11.05;6.18;;;9.80;99.90;;;;;;8369090;28;20047;-76
2024/03/19 01:50:12;;;;;;;10.32;5.65;;;9.80;99.90;;;;;;8358637;28;20524;-76
2024/03/19 01:54:13;;;;;;;12.13;6.63;;;9.90;99.90;;;;;;8359245;28;20480;-76
2024/03/19 01:58:14;;;;;;;10.57;6.05;;;9.90;99.90;;;;;;8375996;28;20067;-76
2024/03/19 02:02:32;;;;;;;10.48;6.00;;;10.00;99.90;;;;;;8387809;28;20121;-76
2024/03/19 02:06:33;;;;;;;13.18;6.18;;;10.00;99.90;;;;;;8376350;28;20108;-76
2024/03/19 02:10:34;;;;;;;9.98;6.10;;;10.00;99.90;;;;;;8378467;28;20048;-76
2024/03/19 02:14:35;;;;;;;11.85;5.97;;;10.00;99.90;;;;;;8377231;28;20104;-76
2024/03/19 02:18:36;;;;;;;10.35;5.85;;;10.00;99.90;;;;;;8369346;28;20483;-76
2024/03/19 02:22:37;;;;;;;10.18;5.45;;;10.00;99.90;;;;;;8374949;28;20044;-76
2024/03/19 02:26:38;;;;;;;10.90;5.82;;;10.00;99.90;;;;;;8373693;28;20054;-76
2024/03/19 02:30:39;;;;;;;9.45;5.55;;;10.00;99.90;;;;;;8377611;28;20036;-76
2024/03/19 02:34:40;;;;;;;10.30;5.70;;;10.00;99.90;;;;;;8378849;28;20545;-76
2024/03/19 02:38:41;;;;;;;13.80;5.78;;;10.10;99.90;;;;;;8367450;28;20058;-76
2024/03/19 02:42:42;;;;;;;10.02;5.53;;;10.10;99.90;;;;;;8377636;28;20135;-76
2024/03/19 02:46:43;;;;;;;11.30;5.32;;;10.10;99.90;;;;;;8357806;28;20056;-76
2024/03/19 02:50:44;;;;;;;10.93;5.85;;;10.10;99.90;;;;;;8361149;28;20052;-76
2024/03/19 02:54:45;;;;;;;12.00;5.75;;;10.20;99.90;;;;;;8361016;28;20080;-76
2024/03/19 02:58:46;;;;;;;10.45;5.30;;;10.20;99.90;;;;;;8384452;28;20117;-76
2024/03/19 03:02:50;;;;;;;10.10;5.43;;;10.20;99.90;;;;;;8375513;28;20044;-76
2024/03/19 03:06:51;;;;;;;10.75;5.72;;;10.30;99.90;;;;;;8375837;28;20052;-76
2024/03/19 03:10:54;;;;;;;9.23;5.13;;;10.20;99.90;;;;;;8375022;28;20044;-76
2024/03/19 03:14:55;;;;;;;12.32;5.65;;;10.20;99.90;;;;;;8373766;28;20049;-76
2024/03/19 03:18:56;;;;;;;8.65;4.65;;;10.30;99.90;;;;;;8385233;28;20048;-76
2024/03/19 03:22:57;;;;;;;8.85;4.95;;;10.30;99.90;;;;;;8379810;28;20048;-76
2024/03/19 03:26:58;;;;;;;9.65;4.53;;;10.30;99.90;;;;;;8375888;28;20052;-76
2024/03/19 03:30:59;;;;;;;8.82;5.00;;;10.30;99.90;;;;;;8379898;28;20105;-76
2024/03/19 03:35:00;;;;;;;11.23;5.20;;;10.30;99.90;;;;;;8376148;28;20052;-76
2024/03/19 03:39:01;;;;;;;10.13;5.68;;;10.40;99.90;;;;;;8367906;28;20052;-76
2024/03/19 03:43:02;;;;;;;8.40;4.38;;;10.40;99.90;;;;;;8384264;28;20400;-76
2024/03/19 03:47:03;;;;;;;9.05;5.00;;;10.40;99.90;;;;;;8374411;28;20048;-76
2024/03/19 03:51:04;;;;;;;9.35;4.47;;;10.40;99.90;;;;;;8374358;28;20070;-76
2024/03/19 03:55:09;;;;;;;8.15;4.32;;;10.40;99.90;;;;;;8363493;28;20063;-76
2024/03/19 03:59:10;;;;;;;7.85;4.38;;;10.40;99.90;;;;;;8380155;28;20049;-76
2024/03/19 04:03:11;;;;;;;8.90;4.93;;;10.40;99.90;;;;;;8390323;28;20044;-76
2024/03/19 04:07:12;;;;;;;9.10;5.25;;;10.40;99.90;;;;;;8384129;28;20511;-76
2024/03/19 04:11:13;;;;;;;10.10;5.82;;;10.40;99.90;;;;;;8380117;28;20753;-76
2024/03/19 04:15:15;;;;;;;14.02;5.72;;;10.30;99.90;;;;;;8387442;28;20135;-76
2024/03/19 04:19:16;;;;;;;10.45;5.18;;;10.40;99.90;;;;;;8398783;28;20052;-76
2024/03/19 04:23:17;;;;;;;11.77;5.45;;;10.40;99.90;;;;;;8373326;28;20082;-76
2024/03/19 04:27:18;;;;;;;8.43;4.90;;;10.40;99.90;;;;;;8397166;28;20078;-75
2024/03/19 04:31:19;;;;;;;9.43;5.30;;;10.40;99.90;;;;;;8375593;28;20055;-76
2024/03/19 04:35:20;;;;;;;8.82;5.03;;;10.40;99.90;;;;;;8366728;28;20051;-76
2024/03/19 04:39:21;;;;;;;10.93;5.18;;;10.40;99.90;;;;;;8370697;28;20044;-76
2024/03/19 04:43:22;;;;;;;8.85;4.65;;;10.50;99.90;;;;;;8379119;28;20556;-76
2024/03/19 04:47:23;;;;;;;9.15;5.50;;;10.50;99.90;;;;;;8388863;28;20051;-76
2024/03/19 04:51:25;;;;;;;8.10;5.13;;;10.40;99.90;;;;;;8376651;28;20048;-76
2024/03/19 04:55:26;;;;;;;11.57;4.95;;;10.50;99.90;;;;;;8366927;28;20060;-76
2024/03/19 04:59:28;;;;;;;9.25;5.25;;;10.50;99.90;;;;;;8380343;28;20052;-76
2024/03/19 05:03:29;;;;;;;10.13;4.95;;;10.50;99.90;;;;;;8399996;28;20048;-76
2024/03/19 05:07:30;;;;;;;12.05;5.38;;;10.50;99.90;;;;;;8406513;28;20181;-76
2024/03/19 05:11:31;;;;;;;9.13;4.97;;;10.50;99.90;;;;;;8406559;28;20105;-76
2024/03/19 05:15:32;;;;;;;9.27;5.10;;;10.50;99.90;;;;;;8401962;28;20511;-76
2024/03/19 05:19:34;;;;;;;9.52;5.43;;;10.50;99.90;;;;;;8404164;28;20558;-76
2024/03/19 05:23:34;;;;;;;9.52;5.40;;;10.50;99.90;;;;;;8392335;28;20578;-76
2024/03/19 05:27:38;;;;;;;9.75;5.50;;;10.50;99.90;;;;;;8390759;28;20130;-76
2024/03/19 05:31:38;;;;;;;8.77;5.78;;;10.50;99.90;;;;;;8386939;28;20129;-76
2024/03/19 05:35:39;;;;;;;9.85;5.22;;;10.50;99.90;;;;;;8408502;28;20106;-76
2024/03/19 05:39:40;;;;;;;7.20;4.68;;;10.50;99.90;;;;;;8388133;28;20567;-76
2024/03/19 05:43:46;;;;;;;9.10;5.10;;;10.60;99.90;;;;;;8406217;28;20040;-76
2024/03/19 05:47:47;;;;;;;9.18;4.93;;;10.60;99.90;;;;;;8391267;28;20552;-76
2024/03/19 05:51:48;;;;;;;7.78;4.90;;;10.60;99.90;;;;;;8395351;28;20146;-76
2024/03/19 05:55:49;;;;;;;7.75;4.72;;;10.60;99.90;;;;;;8406065;28;20135;-76
2024/03/19 05:59:50;;;;;;;8.15;4.82;;;10.60;99.90;;;;;;8395933;28;20511;-76
2024/03/19 06:03:51;;;;;;;7.93;4.85;;;10.60;99.90;;;;;;8401392;28;20403;-76
2024/03/19 06:07:52;;;;;;;9.70;4.78;;;10.60;99.90;;;;;;8395871;28;20169;-76
2024/03/19 06:11:53;;;;;;;9.32;5.45;;;10.60;99.90;;;;;;8403090;28;20056;-76
2024/03/19 06:15:54;;;;;;;11.05;5.40;;;10.60;99.90;;;;;;8394516;28;20142;-76
2024/03/19 06:19:56;;;;;;;8.40;4.57;;;10.70;99.90;;;;;;8390220;28;20123;-76
2024/03/19 06:23:57;;;;;;;9.43;4.85;;;10.70;99.90;;;;;;8404153;28;20169;-76
2024/03/19 06:27:57;;;;;;;8.65;4.90;;;10.70;99.90;;;;;;8405982;28;20055;-76
2024/03/19 06:31:59;;;;;;;7.63;4.55;;;10.70;99.90;;;;;;8401974;28;20054;-76
2024/03/19 06:36:00;;;;;;;7.50;4.32;;;10.70;99.90;;;;;;8406950;28;20131;-76
2024/03/19 06:40:01;;;;;;;9.23;4.85;;;10.80;99.90;;;;;;8407348;28;20123;-76
2024/03/19 06:44:02;;;;;;;11.20;5.13;;;10.80;99.90;;;;;;8406340;28;20547;-76
2024/03/19 06:48:04;;;;;;;8.52;4.10;;;10.80;99.90;;;;;;8406029;28;20127;-76
2024/03/19 06:52:04;;;;;;;8.35;4.43;;;10.80;99.90;;;;;;8403982;28;20048;-76
2024/03/19 06:56:09;;;;;;;7.55;4.13;;;10.90;99.90;;;;;;8406323;28;20048;-76
2024/03/19 07:00:13;;;;;;;9.48;4.47;;;10.90;99.90;;;;;;8406430;28;20184;-76
2024/03/19 07:04:14;;;;;;;11.15;4.85;;;11.00;99.90;;;;;;8403082;28;20056;-75
2024/03/19 07:08:15;;;;;;;9.77;4.47;;;11.00;99.90;;;;;;8414753;28;20091;-76
2024/03/19 07:12:16;;;;;;;8.88;4.40;;;11.00;99.90;;;;;;8412498;28;20063;-76
2024/03/19 07:16:19;;;;;;;8.98;4.75;;;11.00;99.90;;;;;;8393462;28;20130;-76
2024/03/19 07:20:20;;;;;;;10.73;4.32;;;11.10;99.90;;;;;;8407016;28;20127;-76
2024/03/19 07:24:21;;;;;;;8.63;4.35;;;11.10;99.90;;;;;;8408607;28;20046;-76
2024/03/19 07:28:22;;;;;;;9.30;4.30;;;11.10;99.90;;;;;;8410243;28;20124;-76
2024/03/19 07:32:24;;;;;;;9.75;4.90;;;11.20;99.90;;;;;;8411438;28;20112;-76
2024/03/19 07:36:25;;;;;;;8.63;4.45;;;11.20;99.90;;;;;;8410411;28;20139;-76
2024/03/19 07:40:26;;;;;;;8.57;4.50;;;11.20;99.90;;;;;;8408525;28;20472;-76
2024/03/19 07:44:26;;;;;;;8.65;4.60;;;11.30;99.90;;;;;;8410708;28;20110;-76
2024/03/19 07:48:28;;;;;;;11.27;4.63;;;11.40;99.90;;;;;;8411691;28;20138;-76
2024/03/19 07:52:29;;;;;;;7.80;3.75;;;11.40;99.90;;;;;;8410611;28;20134;-76
2024/03/19 07:56:30;;;;;;;8.43;4.20;;;11.50;99.90;;;;;;8408189;28;20495;-76
2024/03/19 08:00:31;;;;;;;6.80;3.78;;;11.50;99.90;;;;;;8412137;28;20491;-76
2024/03/19 08:04:32;;;;;;;7.43;4.30;;;11.60;99.90;;;;;;8395043;28;20047;-76
2024/03/19 08:08:33;;;;;;;9.13;4.50;;;11.70;99.90;;;;;;8409021;28;20055;-76
2024/03/19 08:12:35;;;;;;;9.95;4.45;;;11.80;99.90;;;;;;8393973;28;20056;-76
2024/03/19 08:16:36;;;;;;;8.43;4.40;;;11.80;99.90;;;;;;8398734;28;20188;-76
2024/03/19 08:20:37;;;;;;;7.97;4.30;;;11.80;99.90;;;;;;8411438;28;20127;-76
2024/03/19 08:24:39;;;;;;;9.57;4.05;;;11.80;99.90;;;;;;8393774;28;20056;-76
2024/03/19 08:28:41;;;;;;;9.00;4.13;;;11.90;99.90;;;;;;8408220;28;20131;-77
2024/03/19 08:32:42;;;;;;;9.50;3.50;;;11.90;99.90;;;;;;8407618;28;20048;-76
2024/03/19 08:36:43;;;;;;;7.57;3.70;;;12.00;99.90;;;;;;8386119;28;21815;-76
2024/03/19 08:40:45;;;;;;;5.97;3.40;;;12.00;99.90;;;;;;8395920;28;20139;-76
2024/03/19 08:44:46;;;;;;;5.90;3.30;;;12.10;99.90;;;;;;8403209;28;20127;-76
2024/03/19 08:48:48;;;;;;;8.30;3.47;;;12.20;99.90;;;;;;8409275;28;20051;-76
2024/03/19 08:52:48;;;;;;;6.32;3.08;;;12.20;99.90;;;;;;8433735;28;20470;-76
2024/03/19 08:56:51;;;;;;;7.22;3.33;;;12.30;99.90;;;;;;8410964;28;20127;-76
2024/03/19 09:00:52;;;;;;;8.07;3.80;;;12.30;99.90;;;;;;8421509;28;20130;-76
2024/03/19 09:04:53;;;;;;;8.73;3.05;;;12.30;99.90;;;;;;8404510;28;20048;-76
2024/03/19 09:08:54;;;;;;;8.48;3.60;;;12.40;99.90;;;;;;8408412;28;20127;-75
2024/03/19 09:12:55;;;;;;;7.53;3.75;;;12.50;99.90;;;;;;8410752;28;20594;-76
2024/03/19 09:16:56;;;;;;;6.82;3.50;;;12.60;99.90;;;;;;8399444;28;20159;-76
2024/03/19 09:20:58;;;;;;;6.65;3.08;;;12.80;99.90;;;;;;8404248;28;20521;-76
2024/03/19 09:25:02;;;;;;;6.30;3.72;;;12.90;99.90;;;;;;8410129;28;20124;-76
2024/03/19 09:29:04;;;;;;;8.43;3.63;;;13.00;99.90;;;;;;8393432;28;20131;-76
2024/03/19 09:33:05;;;;;;;6.45;3.13;;;13.00;99.90;;;;;;8409883;28;20080;-76
2024/03/19 09:37:06;;;;;;;6.78;3.10;;;13.10;99.90;;;;;;8408556;28;20131;-76
2024/03/19 09:41:07;;;;;;;6.70;3.00;;;13.20;99.90;;;;;;8393485;28;20109;-76
2024/03/19 09:45:34;;;;;;;6.00;3.10;;;13.30;99.90;;;;;;8409721;28;20136;-76
2024/03/19 09:49:36;;;;;;;5.63;3.25;;;13.50;99.90;;;;;;8390856;28;20912;-76
2024/03/19 09:53:38;;;;;;;8.27;3.42;;;13.60;99.90;;;;;;8394335;28;20138;-76
2024/03/19 09:57:39;;;;;;;6.85;3.55;;;13.70;99.90;;;;;;8408140;28;20173;-76
2024/03/19 10:01:41;;;;;;;6.45;3.45;;;13.80;99.90;;;;;;8409740;28;20162;-76
2024/03/19 10:05:42;;;;;;;6.05;2.70;;;14.00;99.90;;;;;;8411499;28;20130;-76
2024/03/19 10:09:47;;;;;;;9.85;3.22;;;14.40;99.90;;;;;;8403468;28;20080;-76
2024/03/19 10:13:50;;;;;;;7.38;2.78;;;14.80;99.90;;;;;;8421968;28;20171;-76
2024/03/19 10:17:51;;;;;;;9.15;3.30;;;15.10;99.90;;;;;;8401900;28;20173;-76
2024/03/19 10:21:52;;;;;;;7.05;3.33;;;15.30;99.90;;;;;;8397507;28;20044;-76
2024/03/19 10:25:56;;;;;;;7.80;2.80;;;15.40;99.90;;;;;;8409064;28;20228;-76
2024/03/19 10:29:58;;;;;;;8.77;3.30;;;15.40;99.90;;;;;;8408364;28;20123;-76
2024/03/19 10:34:00;;;;;;;7.32;3.00;;;15.50;99.90;;;;;;8407650;28;20550;-76
2024/03/19 10:38:02;;;;;;;8.43;3.03;;;15.70;99.90;;;;;;8409587;28;20131;-76
2024/03/19 10:42:10;;;;;;;8.25;2.72;;;16.10;99.90;;;;;;8407737;28;20227;-76
2024/03/19 10:46:12;;;;;;;8.13;2.28;;;16.30;99.90;;;;;;8411968;28;20475;-77
2024/03/19 10:50:15;;;;;;;7.50;2.63;;;16.50;99.90;;;;;;8407426;28;20139;-76
2024/03/19 10:54:19;;;;;;;7.25;2.38;;;16.70;99.90;;;;;;8408026;28;20135;-76
2024/03/19 10:58:22;;;;;;;6.90;2.40;;;17.00;99.90;;;;;;8405415;28;20134;-76
2024/03/19 11:02:23;;;;;;;4.88;2.22;;;17.10;99.90;;;;;;8403513;28;20495;-76
2024/03/19 11:06:25;;;;;;;5.72;2.58;;;17.30;99.90;;;;;;8410312;28;20446;-76
2024/03/19 11:10:30;;;;;;;5.80;1.70;;;17.60;99.90;;;;;;8411059;28;20058;-76
2024/03/19 11:14:32;;;;;;;5.15;2.00;;;17.60;99.90;;;;;;8390514;28;20177;-76
2024/03/19 11:18:34;;;;;;;8.10;2.22;;;17.30;99.90;;;;;;8410978;28;20689;-76
2024/03/19 11:22:35;;;;;;;5.47;1.80;;;17.00;99.90;;;;;;8412149;28;20495;-77
2024/03/19 11:26:37;;;;;;;4.63;1.92;;;16.90;99.90;;;;;;8410021;28;20458;-77
2024/03/19 11:30:46;;;;;;;7.93;2.10;;;16.60;99.90;;;;;;8402343;28;20503;-75
2024/03/19 11:34:51;;;;;;;4.57;2.00;;;16.60;99.90;;;;;;8407585;28;20523;-73
2024/03/19 11:38:52;;;;;;;11.27;2.20;;;16.50;99.90;;;;;;8392092;28;20211;-76
2024/03/19 11:42:53;;;;;;;6.65;2.15;;;16.50;99.90;;;;;;8391828;28;20506;-76
2024/03/19 11:46:54;;;;;;;4.15;1.80;;;16.40;99.90;;;;;;8413132;28;20056;-76
2024/03/19 11:50:58;;;;;;;3.80;1.70;;;16.30;99.90;;;;;;8411305;28;20079;-76
2024/03/19 11:54:59;;;;;;;5.00;2.03;;;16.40;99.90;;;;;;8406016;28;20048;-76
2024/03/19 11:59:00;;;;;;;5.13;2.05;;;16.40;99.90;;;;;;8409652;28;20123;-76
2024/03/19 12:03:03;;;;;;;4.97;2.03;;;16.50;99.90;;;;;;8408402;28;20055;-76
2024/03/19 12:07:05;;;;;;;5.07;2.10;;;16.70;99.90;;;;;;8407991;28;20111;-77
2024/03/19 12:11:07;;;;;;;5.45;1.80;;;17.20;99.90;;;;;;8391689;28;20123;-77
2024/03/19 12:15:11;;;;;;;6.72;2.33;;;17.40;99.90;;;;;;8402785;28;20131;-76
2024/03/19 12:19:14;;;;;;;6.57;2.53;;;18.00;99.90;;;;;;8433605;28;20173;-76
2024/03/19 12:23:14;;;;;;;6.55;2.33;;;18.00;99.90;;;;;;8408331;28;20055;-76
2024/03/19 12:27:15;;;;;;;7.05;2.53;;;17.80;99.90;;;;;;8397141;28;20060;-76
2024/03/19 12:31:23;;;;;;;5.85;2.35;;;17.80;99.90;;;;;;8408511;28;20044;-76
2024/03/19 12:35:25;;;;;;;5.93;2.60;;;17.90;99.90;;;;;;8408211;28;20126;-77
2024/03/19 12:39:27;;;;;;;5.35;2.20;;;17.70;99.90;;;;;;8391994;28;20056;-76
2024/03/19 12:43:27;;;;;;;7.60;2.83;;;17.70;99.90;;;;;;8410132;28;20139;-76
2024/03/19 12:47:28;;;;;;;6.75;2.70;;;17.50;99.90;;;;;;8407244;28;20040;-76
2024/03/19 12:51:30;;;;;;;5.63;2.80;;;17.20;99.90;;;;;;8391801;28;20040;-76
2024/03/19 12:55:31;;;;;;;6.03;2.75;;;17.00;99.90;;;;;;8389454;28;20058;-76
2024/03/19 12:59:33;;;;;;;7.05;2.60;;;16.90;99.90;;;;;;8406576;28;20052;-77
2024/03/19 13:03:33;;;;;;;6.63;2.60;;;16.80;99.90;;;;;;8408368;28;20586;-76
2024/03/19 13:07:35;;;;;;;6.05;2.47;;;16.80;99.90;;;;;;8390163;28;20460;-76
2024/03/19 13:11:37;;;;;;;4.93;2.13;;;16.90;99.90;;;;;;8407938;28;20161;-76
2024/03/19 13:15:38;;;;;;;5.00;2.03;;;17.10;99.90;;;;;;8407885;28;20131;-76
2024/03/19 13:19:39;;;;;;;5.90;2.70;;;17.40;99.90;;;;;;8410446;28;20115;-76
2024/03/19 13:23:40;;;;;;;5.20;2.28;;;17.50;99.90;;;;;;8389595;28;20076;-77
2024/03/19 13:27:41;;;;;;;5.07;2.25;;;17.70;99.90;;;;;;8404204;28;20048;-76
2024/03/19 13:31:42;;;;;;;5.25;2.20;;;17.90;99.90;;;;;;8408244;28;20500;-77
2024/03/19 13:35:42;;;;;;;4.40;2.00;;;18.00;99.90;;;;;;8391305;28;20040;-76
2024/03/19 13:39:43;;;;;;;6.50;2.45;;;17.90;99.90;;;;;;8405154;28;20105;-77
2024/03/19 13:43:45;;;;;;;5.80;2.20;;;17.80;99.90;;;;;;8401807;28;20115;-76
2024/03/19 13:47:46;;;;;;;5.32;2.38;;;17.90;99.90;;;;;;8406659;28;20096;-76
2024/03/19 13:51:47;;;;;;;6.85;3.25;;;17.90;99.90;;;;;;8409337;28;20098;-76
2024/03/19 13:55:48;;;;;;;7.10;3.30;;;18.00;99.90;;;;;;8392346;28;20131;-76
2024/03/19 13:59:50;;;;;;;6.43;2.97;;;18.30;99.90;;;;;;8388401;28;20474;-76
2024/03/19 14:03:55;;;;;;;6.93;2.75;;;18.50;99.90;;;;;;8390462;28;20089;-76
2024/03/19 14:07:55;;;;;;;8.10;2.78;;;18.60;99.90;;;;;;8364473;28;20484;-76
2024/03/19 14:11:57;;;;;;;6.43;2.60;;;18.40;99.90;;;;;;8370898;28;20427;-76
2024/03/19 14:15:58;;;;;;;6.95;2.80;;;18.40;99.90;;;;;;8386785;28;20637;-76
2024/03/19 14:19:59;;;;;;;8.65;3.00;;;18.70;99.90;;;;;;8383736;28;20063;-76
2024/03/19 14:24:00;;;;;;;6.50;2.63;;;19.20;99.90;;;;;;8375150;28;20049;-76
2024/03/19 14:28:04;;;;;;;7.20;2.75;;;20.10;99.90;;;;;;8383034;28;20443;-76
2024/03/19 14:32:07;;;;;;;5.97;2.60;;;20.70;99.90;;;;;;8380237;28;20055;-77
2024/03/19 14:36:08;;;;;;;5.18;2.67;;;21.30;99.90;;;;;;8383574;28;20186;-76
2024/03/19 14:40:12;;;;;;;5.72;2.63;;;21.40;99.90;;;;;;8377377;28;20052;-77
2024/03/19 14:44:13;;;;;;;6.10;2.88;;;20.70;99.90;;;;;;8369836;28;20059;-76
2024/03/19 14:48:14;;;;;;;5.95;3.00;;;20.20;99.90;;;;;;8381397;28;20048;-74
2024/03/19 14:52:15;;;;;;;5.72;3.20;;;19.90;99.90;;;;;;8367448;28;20131;-74
2024/03/19 14:56:15;;;;;;;5.40;2.72;;;19.50;99.90;;;;;;8371715;28;20068;-74
2024/03/19 15:00:17;;;;;;;6.32;3.15;;;19.10;99.90;;;;;;8387302;28;20138;-74
2024/03/19 15:04:18;;;;;;;8.38;3.78;;;18.70;99.90;;;;;;8368988;28;20453;-74
2024/03/19 15:08:19;;;;;;;6.82;3.63;;;18.50;99.90;;;;;;8388559;28;20139;-74
2024/03/19 15:12:20;;;;;;;5.13;2.90;;;18.30;99.90;;;;;;8375100;28;20472;-74
2024/03/19 15:16:22;;;;;;;5.47;2.97;;;18.20;99.90;;;;;;8370220;28;20052;-74
2024/03/19 15:20:23;;;;;;;8.90;2.80;;;18.20;99.90;;;;;;8372785;28;21519;-74
2024/03/19 15:24:24;;;;;;;5.43;2.72;;;18.10;99.90;;;;;;8386099;28;20533;-74
2024/03/19 15:28:25;;;;;;;4.90;2.80;;;18.10;99.90;;;;;;8388014;28;20450;-74
2024/03/19 15:32:26;;;;;;;4.78;2.83;;;18.10;99.90;;;;;;8375726;28;20136;-74
2024/03/19 15:36:27;;;;;;;5.47;3.00;;;18.10;99.90;;;;;;8385106;28;20140;-73
2024/03/19 15:40:28;;;;;;;6.15;3.28;;;18.10;99.90;;;;;;8387603;28;20091;-73
2024/03/19 15:44:30;;;;;;;5.07;2.88;;;18.20;99.90;;;;;;8391375;28;20048;-74
2024/03/19 15:48:31;;;;;;;6.75;3.28;;;18.30;99.90;;;;;;8392182;28;20499;-74
2024/03/19 15:52:32;;;;;;;5.80;2.97;;;18.40;99.90;;;;;;8381328;28;20790;-73
2024/03/19 15:56:33;;;;;;;5.60;2.50;;;18.50;99.90;;;;;;8414790;28;20787;-74
2024/03/19 16:00:34;;;;;;;5.93;2.60;;;18.40;99.90;;;;;;8394739;28;20126;-74
2024/03/19 16:04:35;;;;;;;4.95;2.83;;;18.40;99.90;;;;;;8411095;28;20043;-74
2024/03/19 16:08:36;;;;;;;5.50;2.42;;;18.30;99.90;;;;;;8412486;28;20123;-74
2024/03/19 16:12:37;;;;;;;4.28;2.30;;;18.30;99.90;;;;;;8412877;28;20082;-74
2024/03/19 16:16:39;;;;;;;6.53;2.28;;;18.40;99.90;;;;;;8394690;28;20128;-74
2024/03/19 16:20:41;;;;;;;6.95;2.25;;;18.30;99.90;;;;;;8392745;28;20193;-74
2024/03/19 16:24:42;;;;;;;5.90;2.28;;;18.20;99.90;;;;;;8409691;28;20052;-74
2024/03/19 16:28:43;;;;;;;5.57;2.08;;;18.00;99.90;;;;;;8409765;28;20526;-74
2024/03/19 16:32:44;;;;;;;6.05;2.03;;;17.80;99.90;;;;;;8392887;28;20566;-74
2024/03/19 16:36:46;;;;;;;5.90;1.95;;;17.70;99.90;;;;;;8410190;28;20123;-74
2024/03/19 16:40:47;;;;;;;4.78;1.90;;;17.50;99.90;;;;;;8408284;28;20051;-74
2024/03/19 16:44:48;;;;;;;5.60;1.92;;;17.40;99.90;;;;;;8391428;28;20040;-74
2024/03/19 16:48:52;;;;;;;5.85;1.70;;;17.40;99.90;;;;;;8405451;28;20104;-73
2024/03/19 16:52:53;;;;;;;4.45;1.70;;;17.30;99.90;;;;;;8408515;28;20135;-74
2024/03/19 16:56:54;;;;;;;3.63;1.90;;;17.20;99.90;;;;;;8403673;28;20135;-74
2024/03/19 17:00:56;;;;;;;4.65;1.60;;;17.10;99.90;;;;;;8409896;28;20118;-74
2024/03/19 17:05:00;;;;;;;3.45;1.65;;;16.90;99.90;;;;;;8392313;28;20104;-74
2024/03/19 17:09:01;;;;;;;4.78;1.83;;;16.80;99.90;;;;;;8390318;28;20612;-74
2024/03/19 17:13:03;;;;;;;4.13;1.80;;;16.70;99.90;;;;;;8406613;28;20126;-74
2024/03/19 17:17:03;;;;;;;5.43;1.67;;;16.60;99.90;;;;;;8408897;28;20137;-74
2024/03/19 17:21:05;;;;;;;3.88;1.85;;;16.50;99.90;;;;;;8407935;28;20122;-74
2024/03/19 17:25:07;;;;;;;5.82;1.83;;;16.40;99.90;;;;;;8404554;28;20051;-74
2024/03/19 17:29:10;;;;;;;4.78;1.70;;;16.20;99.90;;;;;;8407475;28;20167;-73
2024/03/19 17:33:16;;;;;;;4.68;1.60;;;16.10;99.90;;;;;;8406398;28;20585;-73
2024/03/19 17:37:17;;;;;;;4.15;2.00;;;16.00;99.90;;;;;;8404641;28;20802;-74
2024/03/19 17:41:18;;;;;;;5.25;2.13;;;15.80;99.90;;;;;;8388726;28;20055;-74
2024/03/19 17:45:19;;;;;;;10.32;2.05;;;15.70;99.90;;;;;;8406702;28;20099;-73
2024/03/19 17:49:21;;;;;;;5.00;1.95;;;15.60;99.90;;;;;;8405448;28;20044;-74
2024/03/19 17:53:22;;;;;;;4.25;1.90;;;15.40;99.90;;;;;;8408578;28;20181;-74
2024/03/19 17:57:23;;;;;;;4.13;1.70;;;15.30;99.90;;;;;;8407876;28;20134;-73
2024/03/19 18:01:24;;;;;;;4.57;1.80;;;15.20;99.90;;;;;;8401158;28;20422;-74
2024/03/19 18:05:25;;;;;;;5.57;1.88;;;15.10;99.90;;;;;;8405576;28;20135;-73
2024/03/19 18:09:26;;;;;;;4.15;1.60;;;15.00;99.90;;;;;;8389057;28;20491;-74
2024/03/19 18:13:28;;;;;;;4.28;1.30;;;14.90;99.90;;;;;;8398830;28;20427;-74
2024/03/19 18:17:28;;;;;;;4.03;1.45;;;14.80;99.90;;;;;;8387243;28;20135;-74
2024/03/19 18:21:30;;;;;;;3.58;1.40;;;14.70;99.90;;;;;;8387865;28;20051;-74
2024/03/19 18:25:31;;;;;;;4.50;1.50;;;14.50;99.90;;;;;;8400768;28;20056;-74
2024/03/19 18:29:32;;;;;;;3.40;1.27;;;14.40;99.90;;;;;;8388894;28;20047;-74
2024/03/19 18:33:34;;;;;;;3.30;1.45;;;14.30;99.90;;;;;;8387130;28;20052;-74
2024/03/19 18:37:36;;;;;;;4.50;1.77;;;14.20;99.90;;;;;;8400619;28;20551;-74
2024/03/19 18:41:37;;;;;;;4.47;1.67;;;14.20;99.90;;;;;;8407714;28;20567;-74
2024/03/19 18:45:38;;;;;;;5.07;1.65;;;14.10;99.90;;;;;;8408192;28;20036;-73
2024/03/19 18:49:41;;;;;;;3.70;1.40;;;14.00;99.90;;;;;;8407454;28;20052;-74
2024/03/19 18:53:50;;;;;;;4.40;1.80;;;14.00;99.90;;;;;;8399659;28;20140;-73
2024/03/19 18:57:56;;;;;;;5.03;1.50;;;13.90;99.90;;;;;;8401606;28;20559;-74
2024/03/19 19:01:57;;;;;;;3.78;1.50;;;13.80;99.90;;;;;;8400635;28;20040;-73
2024/03/19 19:05:58;;;;;;;3.45;1.30;;;13.70;99.90;;;;;;8384027;28;20190;-73
2024/03/19 19:09:59;;;;;;;5.38;1.52;;;13.50;99.90;;;;;;8396689;28;20131;-73
2024/03/19 19:14:00;;;;;;;4.82;1.50;;;13.40;99.90;;;;;;8405593;28;20063;-73
2024/03/19 19:18:00;;;;;;;3.88;1.33;;;13.30;99.90;;;;;;8403718;28;20058;-73
2024/03/19 19:22:03;;;;;;;4.82;1.40;;;13.30;99.90;;;;;;8407941;28;20625;-74
2024/03/19 19:26:04;;;;;;;3.70;1.27;;;13.20;99.90;;;;;;8403639;28;20056;-73
2024/03/19 19:30:07;;;;;;;3.97;1.40;;;13.10;99.90;;;;;;8400898;28;20073;-73
2024/03/19 19:34:11;;;;;;;2.78;1.20;;;13.00;99.90;;;;;;8405378;28;20526;-74
2024/03/19 19:38:12;;;;;;;4.07;1.63;;;13.00;99.90;;;;;;8401097;28;20048;-74
2024/03/19 19:42:13;;;;;;;6.25;1.60;;;12.90;99.90;;;;;;8372990;28;20056;-74
2024/03/19 19:46:14;;;;;;;5.03;1.45;;;12.80;99.90;;;;;;8389948;28;20055;-73
2024/03/19 19:50:15;;;;;;;4.75;1.30;;;12.80;99.90;;;;;;8415104;28;20052;-73
2024/03/19 19:54:16;;;;;;;4.47;1.27;;;12.70;99.90;;;;;;8407088;28;20135;-73
2024/03/19 19:58:17;;;;;;;2.97;1.23;;;12.70;99.90;;;;;;8389488;28;20313;-74
2024/03/19 20:02:19;;;;;;;4.43;1.50;;;12.60;99.90;;;;;;8413821;28;20128;-74
2024/03/19 20:06:20;;;;;;;3.60;1.30;;;12.60;99.90;;;;;;8407955;28;20469;-74
2024/03/19 20:10:21;;;;;;;4.28;1.50;;;12.40;99.90;;;;;;8392944;28;20173;-74
2024/03/19 20:14:23;;;;;;;4.20;1.30;;;12.30;99.90;;;;;;8413540;28;20131;-74
2024/03/19 20:18:24;;;;;;;3.45;1.17;;;12.20;99.90;;;;;;8407056;28;20043;-73
2024/03/19 20:22:25;;;;;;;3.55;1.25;;;12.20;99.90;;;;;;8414651;28;20044;-73
2024/03/19 20:26:26;;;;;;;4.13;1.20;;;12.20;99.90;;;;;;8414742;28;20181;-76
2024/03/19 20:30:37;;;;;;;3.83;1.20;;;12.10;99.90;;;;;;8392041;28;20127;-76
2024/03/19 20:34:38;;;;;;;5.70;1.50;;;12.10;99.90;;;;;;8406673;28;20134;-75
2024/03/19 20:38:40;;;;;;;2.92;1.30;;;12.10;99.90;;;;;;8379918;28;20044;-76
2024/03/19 20:42:41;;;;;;;3.55;1.30;;;12.00;99.90;;;;;;8375248;28;20056;-76
2024/03/19 20:46:41;;;;;;;4.43;1.30;;;11.90;99.90;;;;;;8372413;28;20056;-76
2024/03/19 20:50:43;;;;;;;3.15;1.48;;;11.80;99.90;;;;;;8392322;28;20055;-76
2024/03/19 20:54:44;;;;;;;3.60;1.20;;;11.80;99.90;;;;;;8377455;28;20056;-76